Capitol Logistics 513


RKSI
Incheon International Airport
Seoul, KR
RJAA
Tokyo-Narita International Airport
Tokyo, JP

Activity Log

Date Flight Route Aircraft Duration
02/13/2019 CPX713 EGOB1Y EGOBA G597 KARBU Y697 BIKSI G597 KAE Y437 TENAS L512 GTC Y303 KAMOH Y301 SHELY Y30 SWAMP SWAMPN B763 1h 41m

Route Details

Aircraft Information
Primary: Boeing 767-300BDSF
Backup: Not Available
Route Data
Distance: 680nm
Sched. Duration: 2h 00m
Avg. Duration: 1h 41m (-58m)
Times Flown: 1
Recm'd Route: SEL1S SEL G597 KAE Y437 TENAS L512 GTC Y303 KAMOH Y301 SHELY Y30 MELON NORMA
Planned Altitude: 39,000ft
Origin Wx: RKSI 061230Z 24006KT CAVOK 08/04 Q1020 NOSIG
Dest. Wx: RJAA 061230Z 15003KT 110V240 9999 FEW030 07/04 Q1014 NOSIG
Notes:

Financial History
Total Freight: 121,800lbs
Average Load: 121,800lbs/flt
Fuel Used: 18,700lbs
Avg. Fuel Used: 18,700lbs/flt
Fuel Expense: $14,960
Avg. Fuel Expense: $14,960
Avg. Fuel Cost: $0.80/lbs
Total Gross Income: $121,800
Pilot Pay: $149
Total Expenses: $8,913
Total Revenue: $97,487
Average Revenue: $121,800.00